11 août 2022

Temps Code Temps Temp. Vue Base cloud Vent METAR/SPECI
18:30
V
38 °C 10 km+ - Var Var 3 kt METAR LFBE 111630Z AUTO VRB03KT CAVOK 38/14 Q1011 NOSIG
18:00
V
39 °C 10 km+ - Var Var 5 kt METAR LFBE 111600Z AUTO VRB05KT CAVOK 39/14 Q1011 NOSIG
17:30
V
38 °C 10 km+ - Var Var 3 kt METAR LFBE 111530Z AUTO VRB03KT CAVOK 38/15 Q1011 NOSIG
17:00
V
38 °C 10 km+ - Var Var 3 kt METAR LFBE 111500Z AUTO VRB03KT CAVOK 38/15 Q1011 NOSIG
16:30
V
38 °C 10 km+ - 190° 190° 6 kt METAR LFBE 111430Z AUTO 19006KT 140V260 CAVOK 38/15 Q1012 NOSIG
16:00
V
38 °C 10 km+ - Var Var 4 kt METAR LFBE 111400Z AUTO VRB04KT CAVOK 38/14 Q1012 NOSIG
15:30
V
38 °C 10 km+ - 080° 080° 5 kt METAR LFBE 111330Z AUTO 08005KT 010V130 CAVOK 38/14 Q1012 NOSIG
15:00
V
38 °C 10 km+ - Var Var 3 kt METAR LFBE 111300Z AUTO VRB03KT CAVOK 38/15 Q1012 NOSIG
14:30
V
37 °C 10 km+ - 150° 150° 5 kt METAR LFBE 111230Z AUTO 15005KT 040V210 CAVOK 37/16 Q1013 NOSIG
14:00
V
36 °C 10 km+ - Var Var 5 kt METAR LFBE 111200Z AUTO VRB05KT CAVOK 36/19 Q1013 NOSIG
13:30
V
35 °C 10 km+ - 120° 120° 5 kt METAR LFBE 111130Z AUTO 12005KT 050V200 CAVOK 35/18 Q1013 NOSIG
13:00
V
34 °C 10 km+ - 110° 110° 6 kt METAR LFBE 111100Z AUTO 11006KT 070V170 CAVOK 34/20 Q1013 NOSIG
12:30
V
33 °C 10 km+ - 110° 110° 6 kt METAR LFBE 111030Z AUTO 11006KT 050V170 CAVOK 33/20 Q1014 NOSIG
12:00
V
32 °C 10 km+ - 140° 140° 5 kt METAR LFBE 111000Z AUTO 14005KT 090V220 CAVOK 32/21 Q1014 NOSIG
11:30
V
31 °C 10 km+ - 150° 150° 6 kt METAR LFBE 110930Z AUTO 15006KT 110V200 CAVOK 31/20 Q1014 NOSIG
11:00
V
30 °C 10 km+ - 120° 120° 6 kt METAR LFBE 110900Z AUTO 12006KT 080V170 CAVOK 30/20 Q1014 NOSIG
10:30
V
29 °C 10 km+ - 130° 130° 7 kt METAR LFBE 110830Z AUTO 13007KT 070V160 CAVOK 29/20 Q1014 NOSIG
10:00
V
27 °C 10 km+ - 120° 120° 7 kt METAR LFBE 110800Z AUTO 12007KT 050V190 CAVOK 27/19 Q1014 NOSIG
09:30
V
24 °C 10 km+ - 060° 060° 4 kt METAR LFBE 110730Z AUTO 06004KT 030V100 CAVOK 24/16 Q1014 NOSIG
09:00
V
21 °C 10 km+ - 060° 060° 5 kt METAR LFBE 110700Z AUTO 06005KT CAVOK 21/14 Q1014 NOSIG
08:30
V
19 °C 10 km+ - 070° 070° 5 kt METAR LFBE 110630Z AUTO 07005KT CAVOK 19/13 Q1014 NOSIG
08:00
V
16 °C 10 km+ - 070° 070° 5 kt METAR LFBE 110600Z AUTO 07005KT CAVOK 16/13 Q1014 NOSIG
07:30
V
15 °C 10 km+ - 060° 060° 4 kt METAR LFBE 110530Z AUTO 06004KT CAVOK 15/12 Q1014 NOSIG
07:00
V
15 °C 10 km+ - 080° 080° 4 kt METAR LFBE 110500Z AUTO 08004KT CAVOK 15/11 Q1014 NOSIG
06:30
V
15 °C 10 km+ - Var Var 3 kt METAR LFBE 110430Z AUTO VRB03KT CAVOK 15/11 Q1014 NOSIG
06:00
V
15 °C 10 km+ - 070° 070° 4 kt METAR LFBE 110400Z AUTO 07004KT CAVOK 15/11 Q1014 NOSIG
05:30
V
15 °C 10 km+ - 050° 050° 3 kt METAR LFBE 110330Z AUTO 05003KT CAVOK 15/12 Q1014 NOSIG
05:00
V
15 °C 10 km+ - Var Var 3 kt METAR LFBE 110300Z AUTO VRB03KT CAVOK 15/12 Q1014 NOSIG
04:30
V
16 °C 10 km+ - 070° 070° 3 kt METAR LFBE 110230Z AUTO 07003KT CAVOK 16/11 Q1014 NOSIG
04:00
V
16 °C 10 km+ - 050° 050° 3 kt METAR LFBE 110200Z AUTO 05003KT CAVOK 16/12 Q1014 NOSIG
03:30
V
17 °C 10 km+ - 080° 080° 3 kt METAR LFBE 110130Z AUTO 08003KT CAVOK 17/12 Q1013 NOSIG
03:00
V
17 °C 10 km+ - 070° 070° 3 kt METAR LFBE 110100Z AUTO 07003KT CAVOK 17/12 Q1013 NOSIG
02:30
V
17 °C 10 km+ - 080° 080° 2 kt METAR LFBE 110030Z AUTO 08002KT CAVOK 17/11 Q1013 NOSIG
02:00
V
18 °C 10 km+ - Var Var 1 kt METAR LFBE 110000Z AUTO VRB01KT CAVOK 18/11 Q1013 NOSIG
01:30
V
19 °C 10 km+ - Var 000° 0 kt METAR LFBE 102330Z AUTO 00000KT CAVOK 19/11 Q1013 NOSIG
01:00
V
19 °C 10 km+ - Var 000° 0 kt METAR LFBE 102300Z AUTO 00000KT CAVOK 19/11 Q1013
00:30
V
20 °C 10 km+ - Var Var 1 kt METAR LFBE 102230Z AUTO VRB01KT CAVOK 20/11 Q1013
00:00
V
21 °C 10 km+ - 210° 210° 2 kt METAR LFBE 102200Z AUTO 21002KT CAVOK 21/11 Q1014

10 août 2022

Temps Code Temps Temp. Vue Base cloud Vent METAR/SPECI
23:30
V
22 °C 10 km+ - Var 000° 0 kt METAR LFBE 102130Z AUTO 00000KT CAVOK 22/11 Q1014
23:00
V
22 °C 10 km+ - Var Var 2 kt METAR LFBE 102100Z AUTO VRB02KT CAVOK 22/10 Q1014
22:30
V
24 °C 10 km+ - Var Var 2 kt METAR LFBE 102030Z AUTO VRB02KT CAVOK 24/11 Q1013
22:00
V
25 °C 10 km+ - Var Var 1 kt METAR LFBE 102000Z AUTO VRB01KT CAVOK 25/11 Q1013 NOSIG
21:30
V
28 °C 10 km+ - 200° 200° 2 kt METAR LFBE 101930Z AUTO 20002KT CAVOK 28/10 Q1013 NOSIG
21:00
V
33 °C 10 km+ - Var 000° 0 kt METAR LFBE 101900Z AUTO 00000KT CAVOK 33/09 Q1013 NOSIG
20:30
V
35 °C 10 km+ - 050° 050° 3 kt METAR LFBE 101830Z AUTO 05003KT CAVOK 35/09 Q1013 NOSIG
20:00
V
36 °C 10 km+ - 070° 070° 3 kt METAR LFBE 101800Z AUTO 07003KT 340V150 CAVOK 36/08 Q1012 NOSIG
19:30
V
37 °C 10 km+ - 320° 320° 3 kt METAR LFBE 101730Z AUTO 32003KT 280V030 CAVOK 37/08 Q1013 NOSIG
19:00
V
37 °C 10 km+ - Var Var 3 kt METAR LFBE 101700Z AUTO VRB03KT CAVOK 37/08 Q1013 NOSIG
18:30
V
38 °C 10 km+ - 230° 230° 3 kt METAR LFBE 101630Z AUTO 23003KT 140V280 CAVOK 38/07 Q1013 NOSIG
18:00
V
38 °C 10 km+ - Var Var 4 kt METAR LFBE 101600Z AUTO VRB04KT CAVOK 38/07 Q1013 NOSIG
17:30
V
37 °C 10 km+ - Var Var 3 kt METAR LFBE 101530Z AUTO VRB03KT CAVOK 37/07 Q1013 NOSIG
17:00
V
37 °C 10 km+ - 010° 010° 5 kt METAR LFBE 101500Z AUTO 01005KT 340V050 CAVOK 37/08 Q1013 NOSIG
16:30
V
38 °C 10 km+ - Var Var 3 kt METAR LFBE 101430Z AUTO VRB03KT CAVOK 38/08 Q1014 NOSIG
16:00
V
37 °C 10 km+ - 330° 330° 7 kt METAR LFBE 101400Z AUTO 33007KT 290V010 CAVOK 37/08 Q1014 NOSIG
15:30
V
37 °C 10 km+ - 240° 240° 6 kt METAR LFBE 101330Z AUTO 24006KT 200V290 CAVOK 37/08 Q1014 NOSIG
15:00
V
37 °C 10 km+ - 320° 320° 4 kt METAR LFBE 101300Z AUTO 32004KT 250V350 CAVOK 37/09 Q1015 NOSIG
14:30
V
36 °C 10 km+ - Var Var 3 kt METAR LFBE 101230Z AUTO VRB03KT CAVOK 36/09 Q1015 NOSIG
14:00
V
36 °C 10 km+ - 070° 070° 4 kt METAR LFBE 101200Z AUTO 07004KT 340V150 CAVOK 36/09 Q1015 NOSIG
13:30
V
35 °C 10 km+ - 050° 050° 4 kt METAR LFBE 101130Z AUTO 05004KT 360V100 CAVOK 35/11 Q1015 NOSIG
13:00
V
34 °C 10 km+ - 070° 070° 6 kt METAR LFBE 101100Z AUTO 07006KT 310V120 CAVOK 34/11 Q1016 NOSIG
12:30
V
33 °C 10 km+ - 070° 070° 5 kt METAR LFBE 101030Z AUTO 07005KT 320V110 CAVOK 33/11 Q1016 NOSIG
12:00
V
32 °C 10 km+ - 030° 030° 3 kt METAR LFBE 101000Z AUTO 03003KT 300V090 CAVOK 32/11 Q1016 NOSIG
11:30
V
31 °C 10 km+ - Var Var 4 kt METAR LFBE 100930Z AUTO VRB04KT CAVOK 31/11 Q1016 NOSIG
11:00
V
30 °C 10 km+ - 070° 070° 5 kt METAR LFBE 100900Z AUTO 07005KT 030V110 CAVOK 30/10 Q1016 NOSIG
10:30
V
28 °C 10 km+ - 080° 080° 6 kt METAR LFBE 100830Z AUTO 08006KT 040V110 CAVOK 28/11 Q1016 NOSIG
10:00
V
26 °C 10 km+ - 070° 070° 7 kt METAR LFBE 100800Z AUTO 07007KT CAVOK 26/12 Q1016 NOSIG
09:30
V
23 °C 10 km+ - 060° 060° 7 kt METAR LFBE 100730Z AUTO 06007KT CAVOK 23/12 Q1017 NOSIG
09:00
V
21 °C 10 km+ - 050° 050° 3 kt METAR LFBE 100700Z AUTO 05003KT CAVOK 21/13 Q1017 NOSIG
08:30
V
18 °C 10 km+ - Var Var 2 kt METAR LFBE 100630Z AUTO VRB02KT CAVOK 18/13 Q1017 NOSIG
08:00
V
16 °C 10 km+ - 050° 050° 2 kt METAR LFBE 100600Z AUTO 05002KT CAVOK 16/13 Q1017 NOSIG
07:30
V
14 °C 10 km+ - 060° 060° 2 kt METAR LFBE 100530Z AUTO 06002KT CAVOK 14/11 Q1016 NOSIG
07:00
V
13 °C 10 km+ - 070° 070° 3 kt METAR LFBE 100500Z AUTO 07003KT CAVOK 13/11 Q1016 NOSIG
06:30
V
13 °C 10 km+ - 070° 070° 3 kt METAR LFBE 100430Z AUTO 07003KT CAVOK 13/11 Q1016 NOSIG
06:00
V
14 °C 10 km+ - 080° 080° 2 kt METAR LFBE 100400Z AUTO 08002KT CAVOK 14/11 Q1016 NOSIG
05:30
V
14 °C 10 km+ - 080° 080° 3 kt METAR LFBE 100330Z AUTO 08003KT CAVOK 14/11 Q1016 NOSIG
05:00
V
14 °C 10 km+ - 080° 080° 3 kt METAR LFBE 100300Z AUTO 08003KT CAVOK 14/12 Q1016 NOSIG
04:30
V
15 °C 10 km+ - 070° 070° 2 kt METAR LFBE 100230Z AUTO 07002KT CAVOK 15/11 Q1016 NOSIG
04:00
V
15 °C 10 km+ - Var Var 1 kt METAR LFBE 100200Z AUTO VRB01KT CAVOK 15/10 Q1016 NOSIG
03:30
V
16 °C 10 km+ - 090° 090° 1 kt METAR LFBE 100130Z AUTO 09001KT CAVOK 16/11 Q1016 NOSIG
03:00
V
16 °C 10 km+ - Var Var 1 kt METAR LFBE 100100Z AUTO VRB01KT CAVOK 16/11 Q1016 NOSIG
02:30
V
17 °C 10 km+ - Var 000° 0 kt METAR LFBE 100030Z AUTO 00000KT CAVOK 17/10 Q1017 NOSIG
02:00
V
18 °C 10 km+ - Var Var 1 kt METAR LFBE 100000Z AUTO VRB01KT CAVOK 18/11 Q1017 NOSIG
01:30
V
18 °C 10 km+ - Var Var 1 kt METAR LFBE 092330Z AUTO VRB01KT CAVOK 18/11 Q1017
01:00
V
19 °C 10 km+ - Var Var 2 kt METAR LFBE 092300Z AUTO VRB02KT CAVOK 19/11 Q1017
00:30
V
20 °C 10 km+ - Var Var 2 kt METAR LFBE 092230Z AUTO VRB02KT CAVOK 20/11 Q1017
00:00
V
21 °C 10 km+ - Var Var 2 kt METAR LFBE 092200Z AUTO VRB02KT CAVOK 21/11 Q1017

9 août 2022

Temps Code Temps Temp. Vue Base cloud Vent METAR/SPECI
23:30
V
21 °C 10 km+ - Var Var 2 kt METAR LFBE 092130Z AUTO VRB02KT CAVOK 21/11 Q1017
23:00
V
22 °C 10 km+ - Var 000° 0 kt METAR LFBE 092100Z AUTO 00000KT CAVOK 22/11 Q1017
22:30
V
25 °C 10 km+ - 040° 040° 3 kt METAR LFBE 092030Z AUTO 04003KT CAVOK 25/10 Q1017
22:00
V
26 °C 10 km+ - Var Var 1 kt METAR LFBE 092000Z AUTO VRB01KT CAVOK 26/10 Q1017 NOSIG
21:30
V
30 °C 10 km+ - 350° 350° 3 kt METAR LFBE 091930Z AUTO 35003KT CAVOK 30/09 Q1016 NOSIG
21:00
V
32 °C 10 km+ - 010° 010° 4 kt METAR LFBE 091900Z AUTO 01004KT CAVOK 32/09 Q1016 NOSIG
20:30
V
34 °C 10 km+ - 360° 360° 7 kt METAR LFBE 091830Z AUTO 36007KT CAVOK 34/10 Q1016 NOSIG
20:00
V
35 °C 10 km+ - 350° 350° 4 kt METAR LFBE 091800Z AUTO 35004KT CAVOK 35/09 Q1016 NOSIG
19:30
V
35 °C 10 km+ - 350° 350° 7 kt METAR LFBE 091730Z AUTO 35007KT 320V030 CAVOK 35/08 Q1016 NOSIG
19:00
V
36 °C 10 km+ - Var Var 2 kt METAR LFBE 091700Z AUTO VRB02KT CAVOK 36/07 Q1016 NOSIG
18:30
V
36 °C 10 km+ - 360° 360° 5 kt METAR LFBE 091630Z AUTO 36005KT 320V050 CAVOK 36/07 Q1016 NOSIG
18:00
V
36 °C 10 km+ - 040° 040° 6 kt METAR LFBE 091600Z AUTO 04006KT 360V080 CAVOK 36/06 Q1016 NOSIG
17:30
V
36 °C 10 km+ - 340° 340° 8 kt METAR LFBE 091530Z AUTO 34008KT CAVOK 36/06 Q1016 NOSIG
17:00
V
37 °C 10 km+ - 030° 030° 7 kt METAR LFBE 091500Z AUTO 03007KT 330V070 CAVOK 37/09 Q1016 NOSIG
Données plus anciennes

Nous et des tiers suivons ton comportement sur Internet sur notre site Web à l'aide de cookies. Si tu continues, nous supposons que tu acceptes notre politique en matière de cookies. Apprendre plus